createdAt,value
2018-05-13T00:03:56.392Z,63.70
2018-05-13T00:09:00.161Z,64.10
2018-05-13T00:14:08.758Z,64.20
2018-05-13T00:19:13.165Z,64.10
2018-05-13T00:24:16.376Z,63.90
2018-05-13T00:34:29.389Z,64.90
2018-05-13T00:49:51.458Z,65.00
2018-05-13T01:05:16.739Z,65.20
2018-05-13T01:15:34.685Z,65.80
2018-05-13T01:20:38.162Z,65.90
2018-05-13T01:25:43.095Z,66.30
2018-05-13T01:35:54.794Z,65.90
2018-05-13T01:40:58.615Z,66.30
2018-05-13T01:46:05.406Z,66.30
2018-05-13T01:51:12.189Z,66.50
2018-05-13T01:56:16.881Z,66.00
2018-05-13T02:01:22.319Z,65.90
2018-05-13T02:11:33.824Z,66.40
2018-05-13T02:16:40.152Z,66.00
2018-05-13T02:21:44.344Z,66.40
2018-05-13T02:26:50.487Z,66.50
2018-05-13T02:31:54.187Z,66.40
2018-05-13T02:42:05.989Z,67.00
2018-05-13T02:52:18.062Z,66.80
2018-05-13T02:57:24.000Z,67.00
2018-05-13T03:02:30.015Z,67.50
2018-05-13T03:07:34.650Z,67.70
2018-05-13T03:12:40.125Z,67.70
2018-05-13T03:17:46.253Z,67.50
2018-05-13T03:22:52.465Z,67.10
2018-05-13T03:27:57.220Z,68.10
2018-05-13T03:33:01.797Z,68.10
2018-05-13T03:48:20.980Z,68.60
2018-05-13T03:53:27.676Z,68.40
2018-05-13T04:03:40.247Z,69.40
2018-05-13T04:08:55.832Z,69.30
2018-05-13T04:14:26.923Z,69.60
2018-05-13T04:19:31.365Z,69.60
2018-05-13T04:24:35.094Z,70.00
2018-05-13T04:29:42.045Z,70.00
2018-05-13T04:34:46.895Z,70.30
2018-05-13T04:45:01.731Z,70.10
2018-05-13T04:50:06.105Z,69.80
2018-05-13T05:00:19.958Z,70.40
2018-05-13T05:05:26.190Z,70.20
2018-05-13T05:10:29.567Z,70.00
2018-05-13T05:15:33.192Z,69.80
2018-05-13T05:20:37.700Z,69.30
2018-05-13T05:25:42.422Z,69.40
2018-05-13T05:36:00.387Z,69.90
2018-05-13T05:41:06.204Z,70.30
2018-05-13T05:46:09.101Z,70.10
2018-05-13T05:51:14.464Z,70.30
2018-05-13T06:01:31.264Z,69.70
2018-05-13T06:06:40.613Z,70.00
2018-05-13T06:38:18.934Z,65.30
2018-05-13T06:43:24.713Z,64.50
2018-05-13T06:48:31.540Z,64.10
2018-05-13T06:53:36.363Z,63.70
2018-05-13T06:58:43.548Z,63.40
2018-05-13T07:03:51.377Z,61.50
2018-05-13T07:19:35.498Z,59.60
2018-05-13T07:24:42.050Z,59.40
2018-05-13T07:29:48.993Z,59.20
2018-05-13T07:40:07.059Z,58.20
2018-05-13T08:01:02.134Z,55.10
2018-05-13T08:27:19.219Z,53.50
2018-05-13T08:32:22.523Z,53.10
2018-05-13T08:42:32.513Z,51.90
2018-05-13T08:47:36.202Z,50.90
2018-05-13T08:52:39.774Z,50.30
2018-05-13T09:19:19.655Z,47.90
2018-05-13T09:24:29.412Z,47.00
2018-05-13T09:29:37.904Z,48.00
2018-05-13T09:34:49.008Z,46.10
2018-05-13T09:39:55.683Z,47.10
2018-05-13T09:45:04.893Z,47.30
2018-05-13T09:55:34.648Z,45.60
2018-05-13T10:00:50.959Z,45.50
2018-05-13T10:05:53.867Z,45.90
2018-05-13T10:10:56.750Z,44.00
2018-05-13T10:15:59.438Z,44.10
2018-05-13T10:21:02.041Z,44.20
2018-05-13T10:26:05.411Z,44.40
2018-05-13T10:31:08.006Z,42.50
2018-05-13T10:36:10.569Z,43.10
2018-05-13T10:41:13.131Z,43.40
2018-05-13T10:46:16.520Z,42.80
2018-05-13T10:51:19.273Z,42.80
2018-05-13T10:56:22.541Z,41.90
2018-05-13T11:01:25.154Z,41.60
2018-05-13T11:06:28.307Z,40.60
2018-05-13T11:11:31.348Z,40.90
2018-05-13T11:16:33.899Z,40.90
2018-05-13T11:21:36.983Z,40.10
2018-05-13T11:26:39.557Z,39.00
2018-05-13T11:31:42.461Z,39.90
2018-05-13T11:36:45.061Z,39.40
2018-05-13T11:41:47.613Z,40.30
2018-05-13T11:46:50.205Z,41.20
2018-05-13T11:51:52.834Z,40.00
2018-05-13T11:56:55.374Z,40.20
2018-05-13T12:01:57.945Z,39.90
2018-05-13T12:07:00.516Z,39.60
2018-05-13T12:12:03.347Z,38.30
2018-05-13T12:17:05.917Z,38.60
2018-05-13T12:22:08.472Z,38.50
2018-05-13T12:27:11.172Z,37.80
2018-05-13T12:32:13.709Z,38.10
2018-05-13T12:37:16.985Z,37.50
2018-05-13T12:42:19.558Z,36.80
2018-05-13T12:47:22.113Z,37.40
2018-05-13T12:52:24.718Z,37.80
2018-05-13T12:57:27.286Z,37.60
2018-05-13T13:02:29.876Z,36.70
2018-05-13T13:07:32.398Z,35.90
2018-05-13T13:12:34.967Z,36.10
2018-05-13T13:17:37.556Z,37.20
2018-05-13T13:22:40.119Z,36.80
2018-05-13T13:27:42.703Z,36.10
2018-05-13T13:32:45.253Z,36.60
2018-05-13T13:37:47.803Z,36.80
2018-05-13T13:42:50.365Z,36.40
2018-05-13T13:47:52.897Z,35.50
2018-05-13T13:52:55.515Z,36.20
2018-05-13T13:57:58.091Z,36.80
2018-05-13T14:03:00.664Z,37.60
2018-05-13T14:08:03.264Z,37.40
2018-05-13T14:13:06.083Z,38.00
2018-05-13T14:18:08.637Z,37.70
2018-05-13T14:23:11.233Z,38.00
2018-05-13T14:28:13.797Z,38.70
2018-05-13T14:33:16.479Z,39.90
2018-05-13T14:38:19.800Z,41.90
2018-05-13T14:43:22.394Z,41.90
2018-05-13T14:48:24.946Z,42.20
2018-05-13T14:53:27.520Z,42.30
2018-05-13T14:58:30.088Z,41.90
2018-05-13T15:03:32.666Z,41.90
2018-05-13T15:08:35.255Z,42.10
2018-05-13T15:13:37.907Z,42.50
2018-05-13T15:18:40.496Z,43.50
2018-05-13T15:23:43.093Z,43.60
2018-05-13T15:28:45.648Z,44.10
2018-05-13T15:33:48.490Z,44.50
2018-05-13T15:38:51.108Z,44.30
2018-05-13T15:43:53.705Z,44.30
2018-05-13T15:48:56.591Z,44.40
2018-05-13T15:53:59.139Z,44.40
2018-05-13T15:59:01.718Z,45.00
2018-05-13T16:04:04.406Z,45.10
2018-05-13T16:09:06.969Z,44.80
2018-05-13T16:14:09.668Z,45.30
2018-05-13T16:19:12.300Z,45.30
2018-05-13T16:24:14.839Z,45.30
2018-05-13T16:29:17.432Z,45.40
2018-05-13T16:34:20.368Z,46.10
2018-05-13T16:39:22.937Z,46.20
2018-05-13T16:44:25.545Z,46.70
2018-05-13T16:49:28.118Z,46.70
2018-05-13T16:54:30.790Z,46.70
2018-05-13T16:59:33.381Z,46.70
2018-05-13T17:04:35.970Z,46.90
2018-05-13T17:09:38.614Z,47.30
2018-05-13T17:14:41.276Z,47.50
2018-05-13T17:19:43.841Z,47.90
2018-05-13T17:24:46.500Z,48.30
2018-05-13T17:29:49.694Z,48.70
2018-05-13T17:34:52.264Z,49.20
2018-05-13T17:39:54.819Z,49.80
2018-05-13T17:44:58.165Z,50.10
2018-05-13T17:50:00.884Z,50.00
2018-05-13T17:55:03.390Z,50.10
2018-05-13T18:00:05.970Z,50.10
2018-05-13T18:05:08.566Z,50.30
2018-05-13T18:10:11.138Z,50.50
2018-05-13T18:15:13.712Z,50.70
2018-05-13T18:20:16.284Z,51.00
2018-05-13T18:25:18.825Z,51.10
2018-05-13T18:30:21.411Z,51.40
2018-05-13T18:35:23.951Z,51.80
2018-05-13T18:40:26.513Z,52.20
2018-05-13T18:45:29.086Z,52.80
2018-05-13T18:50:31.858Z,53.50
2018-05-13T18:55:34.437Z,54.40
2018-05-13T19:00:37.053Z,54.50
2018-05-13T19:05:39.858Z,54.80
2018-05-13T19:10:42.888Z,55.00
2018-05-13T19:15:45.457Z,55.30
2018-05-13T19:20:48.156Z,55.50
2018-05-13T19:25:50.728Z,55.80
2018-05-13T19:30:53.391Z,56.00
2018-05-13T19:35:56.070Z,55.90
2018-05-13T19:40:58.634Z,56.10
2018-05-13T19:46:01.203Z,56.20
2018-05-13T19:51:03.813Z,56.70
2018-05-13T19:56:06.562Z,57.30
2018-05-13T20:01:09.112Z,57.90
2018-05-13T20:06:11.675Z,58.10
2018-05-13T20:11:14.877Z,58.70
2018-05-13T20:16:17.448Z,58.60
2018-05-13T20:21:19.994Z,58.90
2018-05-13T20:26:22.538Z,59.50
2018-05-13T20:31:25.094Z,59.00
2018-05-13T20:36:27.630Z,59.70
2018-05-13T20:41:30.203Z,59.70
2018-05-13T20:46:32.766Z,60.60
2018-05-13T20:51:35.319Z,60.70
2018-05-13T20:56:38.087Z,60.40
2018-05-13T21:01:40.625Z,60.20
2018-05-13T21:06:43.194Z,60.80
2018-05-13T21:11:45.749Z,61.30
2018-05-13T21:16:49.254Z,61.30
2018-05-13T21:21:51.850Z,61.20
2018-05-13T21:26:54.408Z,62.00
2018-05-13T21:31:56.992Z,61.80
2018-05-13T21:36:59.533Z,61.80
2018-05-13T21:42:02.105Z,62.70
2018-05-13T21:47:04.734Z,62.20
2018-05-13T21:52:07.270Z,61.90
2018-05-13T21:57:09.837Z,62.20
2018-05-13T22:02:12.441Z,61.80
2018-05-13T22:07:14.997Z,61.90
2018-05-13T22:12:17.596Z,61.80
2018-05-13T22:17:20.276Z,62.30
2018-05-13T22:22:22.834Z,63.30
2018-05-13T22:27:25.398Z,63.70
2018-05-13T22:32:27.948Z,64.30
2018-05-13T22:37:30.511Z,64.40
2018-05-13T22:42:33.066Z,64.60
2018-05-13T22:47:35.618Z,65.00
2018-05-13T22:52:38.218Z,64.80
2018-05-13T22:57:40.821Z,65.50
2018-05-13T23:02:43.396Z,64.80
2018-05-13T23:07:45.965Z,65.00
2018-05-13T23:12:48.521Z,65.70
2018-05-13T23:17:51.080Z,65.80
2018-05-13T23:22:53.645Z,65.60
2018-05-13T23:27:56.206Z,66.40
2018-05-13T23:32:58.759Z,65.20
2018-05-13T23:38:01.354Z,65.50
2018-05-13T23:43:03.932Z,65.40
2018-05-13T23:48:06.502Z,65.40
2018-05-13T23:53:09.075Z,65.70
2018-05-13T23:58:11.638Z,65.90
